sensor_id;sensor_type;location;lat;lon;timestamp;pressure;altitude;pressure_sealevel;temperature;humidity
4398;BME280;2213;49.720;7.296;2023-05-02T00:01:30;98314.84;;;10.81;100.00
4398;BME280;2213;49.720;7.296;2023-05-02T00:04:00;98308.00;;;10.80;100.00
4398;BME280;2213;49.720;7.296;2023-05-02T00:06:29;98316.03;;;10.78;100.00
4398;BME280;2213;49.720;7.296;2023-05-02T00:09:00;98312.00;;;10.76;100.00
4398;BME280;2213;49.720;7.296;2023-05-02T00:11:31;98309.38;;;10.76;100.00
4398;BME280;2213;49.720;7.296;2023-05-02T00:14:00;98307.53;;;10.76;100.00
4398;BME280;2213;49.720;7.296;2023-05-02T00:16:30;98308.28;;;10.70;100.00
4398;BME280;2213;49.720;7.296;2023-05-02T00:19:01;98307.81;;;10.67;100.00
4398;BME280;2213;49.720;7.296;2023-05-02T00:21:31;98309.81;;;10.65;100.00
4398;BME280;2213;49.720;7.296;2023-05-02T00:24:02;98299.63;;;10.70;100.00
4398;BME280;2213;49.720;7.296;2023-05-02T00:26:33;98312.44;;;10.65;100.00
4398;BME280;2213;49.720;7.296;2023-05-02T00:29:03;98314.22;;;10.64;100.00
4398;BME280;2213;49.720;7.296;2023-05-02T00:31:33;98310.00;;;10.63;100.00
4398;BME280;2213;49.720;7.296;2023-05-02T00:34:03;98306.56;;;10.63;100.00
4398;BME280;2213;49.720;7.296;2023-05-02T00:36:33;98312.34;;;10.58;100.00
4398;BME280;2213;49.720;7.296;2023-05-02T00:39:04;98316.13;;;10.55;100.00
4398;BME280;2213;49.720;7.296;2023-05-02T00:41:33;98319.28;;;10.51;100.00
4398;BME280;2213;49.720;7.296;2023-05-02T00:44:03;98310.34;;;10.45;100.00
4398;BME280;2213;49.720;7.296;2023-05-02T00:46:33;98311.44;;;10.36;100.00
4398;BME280;2213;49.720;7.296;2023-05-02T00:49:03;98306.38;;;10.35;100.00
4398;BME280;2213;49.720;7.296;2023-05-02T00:51:33;98309.63;;;10.37;100.00
4398;BME280;2213;49.720;7.296;2023-05-02T00:54:04;98310.97;;;10.33;100.00
4398;BME280;2213;49.720;7.296;2023-05-02T00:56:35;98315.75;;;10.29;100.00
4398;BME280;2213;49.720;7.296;2023-05-02T00:59:07;98323.41;;;10.31;100.00
4398;BME280;2213;49.720;7.296;2023-05-02T01:01:48;98314.56;;;10.32;100.00
4398;BME280;2213;49.720;7.296;2023-05-02T01:04:31;98322.31;;;10.25;100.00
4398;BME280;2213;49.720;7.296;2023-05-02T01:07:34;98318.44;;;10.21;100.00
4398;BME280;2213;49.720;7.296;2023-05-02T01:10:20;98319.69;;;10.25;100.00
4398;BME280;2213;49.720;7.296;2023-05-02T01:12:58;98322.84;;;10.21;100.00
4398;BME280;2213;49.720;7.296;2023-05-02T01:15:34;98325.66;;;10.19;100.00
4398;BME280;2213;49.720;7.296;2023-05-02T01:18:08;98331.69;;;10.20;100.00
4398;BME280;2213;49.720;7.296;2023-05-02T01:20:43;98331.22;;;10.16;100.00
4398;BME280;2213;49.720;7.296;2023-05-02T01:23:25;98326.31;;;10.13;100.00
4398;BME280;2213;49.720;7.296;2023-05-02T01:26:16;98332.59;;;10.04;100.00
4398;BME280;2213;49.720;7.296;2023-05-02T01:28:59;98335.41;;;10.02;100.00
4398;BME280;2213;49.720;7.296;2023-05-02T01:31:34;98334.59;;;10.02;100.00
4398;BME280;2213;49.720;7.296;2023-05-02T01:34:10;98335.28;;;9.96;100.00
4398;BME280;2213;49.720;7.296;2023-05-02T01:36:43;98332.50;;;9.97;100.00
4398;BME280;2213;49.720;7.296;2023-05-02T01:39:19;98339.69;;;9.95;100.00
4398;BME280;2213;49.720;7.296;2023-05-02T01:41:50;98347.06;;;9.92;100.00
4398;BME280;2213;49.720;7.296;2023-05-02T01:44:23;98342.38;;;9.87;100.00
4398;BME280;2213;49.720;7.296;2023-05-02T01:46:55;98344.41;;;9.77;100.00
4398;BME280;2213;49.720;7.296;2023-05-02T01:49:28;98344.75;;;9.74;100.00
4398;BME280;2213;49.720;7.296;2023-05-02T01:52:04;98354.69;;;9.79;100.00
4398;BME280;2213;49.720;7.296;2023-05-02T01:54:39;98363.50;;;9.78;100.00
4398;BME280;2213;49.720;7.296;2023-05-02T01:57:11;98362.53;;;9.79;100.00
4398;BME280;2213;49.720;7.296;2023-05-02T01:59:44;98366.75;;;9.80;100.00
4398;BME280;2213;49.720;7.296;2023-05-02T02:02:15;98371.97;;;9.80;100.00
4398;BME280;2213;49.720;7.296;2023-05-02T02:04:47;98371.69;;;9.75;100.00
4398;BME280;2213;49.720;7.296;2023-05-02T02:07:18;98373.84;;;9.71;100.00
4398;BME280;2213;49.720;7.296;2023-05-02T02:09:47;98382.19;;;9.67;100.00
4398;BME280;2213;49.720;7.296;2023-05-02T02:12:25;98382.53;;;9.64;100.00
4398;BME280;2213;49.720;7.296;2023-05-02T02:15:05;98375.50;;;9.64;100.00
4398;BME280;2213;49.720;7.296;2023-05-02T02:17:45;98382.53;;;9.64;100.00
4398;BME280;2213;49.720;7.296;2023-05-02T02:20:17;98387.44;;;9.58;100.00
4398;BME280;2213;49.720;7.296;2023-05-02T02:22:47;98390.06;;;9.58;100.00
4398;BME280;2213;49.720;7.296;2023-05-02T02:25:18;98389.41;;;9.56;100.00
4398;BME280;2213;49.720;7.296;2023-05-02T02:27:48;98402.13;;;9.59;100.00
4398;BME280;2213;49.720;7.296;2023-05-02T02:30:19;98400.22;;;9.53;100.00
4398;BME280;2213;49.720;7.296;2023-05-02T02:32:49;98399.75;;;9.50;100.00
4398;BME280;2213;49.720;7.296;2023-05-02T02:35:20;98395.50;;;9.49;100.00
4398;BME280;2213;49.720;7.296;2023-05-02T02:38:01;98400.72;;;9.49;100.00
4398;BME280;2213;49.720;7.296;2023-05-02T02:40:41;98405.13;;;9.48;100.00
4398;BME280;2213;49.720;7.296;2023-05-02T02:43:29;98408.72;;;9.47;100.00
4398;BME280;2213;49.720;7.296;2023-05-02T02:46:28;98413.28;;;9.45;100.00
4398;BME280;2213;49.720;7.296;2023-05-02T02:49:17;98425.72;;;9.43;100.00
4398;BME280;2213;49.720;7.296;2023-05-02T02:51:58;98427.00;;;9.47;100.00
4398;BME280;2213;49.720;7.296;2023-05-02T02:54:39;98427.97;;;9.46;100.00
4398;BME280;2213;49.720;7.296;2023-05-02T02:57:17;98427.50;;;9.43;100.00
4398;BME280;2213;49.720;7.296;2023-05-02T02:59:58;98427.66;;;9.41;100.00
4398;BME280;2213;49.720;7.296;2023-05-02T03:02:32;98438.09;;;9.41;100.00
4398;BME280;2213;49.720;7.296;2023-05-02T03:05:06;98434.03;;;9.39;100.00
4398;BME280;2213;49.720;7.296;2023-05-02T03:07:39;98432.06;;;9.41;100.00
4398;BME280;2213;49.720;7.296;2023-05-02T03:10:09;98440.09;;;9.39;100.00
4398;BME280;2213;49.720;7.296;2023-05-02T03:12:39;98433.41;;;9.37;100.00
4398;BME280;2213;49.720;7.296;2023-05-02T03:15:24;98442.72;;;9.31;100.00
4398;BME280;2213;49.720;7.296;2023-05-02T03:17:59;98441.25;;;9.29;100.00
4398;BME280;2213;49.720;7.296;2023-05-02T03:20:30;98430.47;;;9.32;100.00
4398;BME280;2213;49.720;7.296;2023-05-02T03:22:59;98434.88;;;9.31;100.00
4398;BME280;2213;49.720;7.296;2023-05-02T03:25:28;98445.31;;;9.31;100.00
4398;BME280;2213;49.720;7.296;2023-05-02T03:27:59;98440.44;;;9.28;100.00
4398;BME280;2213;49.720;7.296;2023-05-02T03:30:27;98448.28;;;9.28;100.00
4398;BME280;2213;49.720;7.296;2023-05-02T03:32:58;98451.38;;;9.32;100.00
4398;BME280;2213;49.720;7.296;2023-05-02T03:35:29;98446.97;;;9.32;100.00
4398;BME280;2213;49.720;7.296;2023-05-02T03:37:58;98450.88;;;9.28;100.00
4398;BME280;2213;49.720;7.296;2023-05-02T03:40:28;98446.97;;;9.24;100.00
4398;BME280;2213;49.720;7.296;2023-05-02T03:42:59;98455.81;;;9.23;100.00
4398;BME280;2213;49.720;7.296;2023-05-02T03:45:30;98459.53;;;9.21;100.00
4398;BME280;2213;49.720;7.296;2023-05-02T03:48:00;98464.28;;;9.17;100.00
4398;BME280;2213;49.720;7.296;2023-05-02T03:50:31;98471.13;;;9.18;100.00
4398;BME280;2213;49.720;7.296;2023-05-02T03:53:00;98475.06;;;9.14;100.00
4398;BME280;2213;49.720;7.296;2023-05-02T03:55:30;98475.25;;;9.13;100.00
4398;BME280;2213;49.720;7.296;2023-05-02T03:58:00;98468.53;;;9.10;100.00
4398;BME280;2213;49.720;7.296;2023-05-02T04:00:31;98479.16;;;9.08;100.00
4398;BME280;2213;49.720;7.296;2023-05-02T04:03:03;98473.28;;;9.06;100.00
4398;BME280;2213;49.720;7.296;2023-05-02T04:05:32;98481.28;;;9.05;100.00
4398;BME280;2213;49.720;7.296;2023-05-02T04:08:03;98473.47;;;9.05;100.00
4398;BME280;2213;49.720;7.296;2023-05-02T04:10:34;98475.25;;;9.04;100.00
4398;BME280;2213;49.720;7.296;2023-05-02T04:13:05;98474.78;;;9.01;100.00
4398;BME280;2213;49.720;7.296;2023-05-02T04:15:34;98471.84;;;8.96;100.00
4398;BME280;2213;49.720;7.296;2023-05-02T04:18:05;98475.09;;;8.98;100.00
4398;BME280;2213;49.720;7.296;2023-05-02T04:20:35;98481.63;;;8.94;100.00
4398;BME280;2213;49.720;7.296;2023-05-02T04:23:06;98483.28;;;8.87;100.00
4398;BME280;2213;49.720;7.296;2023-05-02T04:25:35;98488.16;;;8.90;100.00
4398;BME280;2213;49.720;7.296;2023-05-02T04:28:06;98485.25;;;8.85;100.00
4398;BME280;2213;49.720;7.296;2023-05-02T04:30:37;98487.66;;;8.86;100.00
4398;BME280;2213;49.720;7.296;2023-05-02T04:33:08;98488.47;;;8.87;100.00
4398;BME280;2213;49.720;7.296;2023-05-02T04:35:40;98488.47;;;8.87;100.00
4398;BME280;2213;49.720;7.296;2023-05-02T04:38:10;98492.25;;;8.84;100.00
4398;BME280;2213;49.720;7.296;2023-05-02T04:40:41;98492.41;;;8.83;100.00
4398;BME280;2213;49.720;7.296;2023-05-02T04:43:11;98497.63;;;8.83;100.00
4398;BME280;2213;49.720;7.296;2023-05-02T04:45:42;98503.97;;;8.80;100.00
4398;BME280;2213;49.720;7.296;2023-05-02T04:48:13;98508.38;;;8.80;100.00
4398;BME280;2213;49.720;7.296;2023-05-02T04:50:45;98517.16;;;8.79;100.00
4398;BME280;2213;49.720;7.296;2023-05-02T04:53:13;98518.81;;;8.80;100.00
4398;BME280;2213;49.720;7.296;2023-05-02T04:55:42;98532.19;;;8.85;100.00
4398;BME280;2213;49.720;7.296;2023-05-02T04:58:13;98537.41;;;8.85;100.00
4398;BME280;2213;49.720;7.296;2023-05-02T05:00:42;98534.59;;;8.86;100.00
4398;BME280;2213;49.720;7.296;2023-05-02T05:03:12;98534.59;;;8.86;100.00
4398;BME280;2213;49.720;7.296;2023-05-02T05:05:42;98536.06;;;8.89;100.00
4398;BME280;2213;49.720;7.296;2023-05-02T05:08:11;98542.59;;;8.93;100.00
4398;BME280;2213;49.720;7.296;2023-05-02T05:10:42;98544.22;;;8.94;100.00
4398;BME280;2213;49.720;7.296;2023-05-02T05:13:11;98544.22;;;8.94;100.00
4398;BME280;2213;49.720;7.296;2023-05-02T05:15:41;98548.28;;;8.96;100.00
4398;BME280;2213;49.720;7.296;2023-05-02T05:18:12;98548.97;;;8.98;100.00
4398;BME280;2213;49.720;7.296;2023-05-02T05:20:43;98556.59;;;9.00;100.00
4398;BME280;2213;49.720;7.296;2023-05-02T05:23:13;98558.72;;;9.04;100.00
4398;BME280;2213;49.720;7.296;2023-05-02T05:25:44;98562.16;;;9.05;100.00
4398;BME280;2213;49.720;7.296;2023-05-02T05:28:13;98569.97;;;9.05;100.00
4398;BME280;2213;49.720;7.296;2023-05-02T05:30:46;98567.69;;;9.10;100.00
4398;BME280;2213;49.720;7.296;2023-05-02T05:33:17;98572.75;;;9.12;100.00
4398;BME280;2213;49.720;7.296;2023-05-02T05:35:47;98574.88;;;9.16;100.00
4398;BME280;2213;49.720;7.296;2023-05-02T05:38:16;98578.75;;;9.20;100.00
4398;BME280;2213;49.720;7.296;2023-05-02T05:40:49;98580.06;;;9.24;100.00
4398;BME280;2213;49.720;7.296;2023-05-02T05:43:18;98586.25;;;9.31;100.00
4398;BME280;2213;49.720;7.296;2023-05-02T05:45:51;98589.19;;;9.36;100.00
4398;BME280;2213;49.720;7.296;2023-05-02T05:48:22;98594.06;;;9.39;100.00
4398;BME280;2213;49.720;7.296;2023-05-02T05:50:51;98584.94;;;9.43;100.00
4398;BME280;2213;49.720;7.296;2023-05-02T05:53:21;98580.00;;;9.48;100.00
4398;BME280;2213;49.720;7.296;2023-05-02T05:55:50;98594.03;;;9.55;100.00
4398;BME280;2213;49.720;7.296;2023-05-02T05:58:19;98591.56;;;9.62;100.00
4398;BME280;2213;49.720;7.296;2023-05-02T06:00:49;98595.94;;;9.70;100.00
4398;BME280;2213;49.720;7.296;2023-05-02T06:03:21;98596.91;;;9.77;100.00
4398;BME280;2213;49.720;7.296;2023-05-02T06:05:52;98596.22;;;9.83;100.00
4398;BME280;2213;49.720;7.296;2023-05-02T06:08:21;98598.81;;;9.91;100.00
4398;BME280;2213;49.720;7.296;2023-05-02T06:10:52;98599.16;;;9.96;100.00
4398;BME280;2213;49.720;7.296;2023-05-02T06:13:22;98601.06;;;10.02;100.00
4398;BME280;2213;49.720;7.296;2023-05-02T06:15:53;98612.47;;;10.09;100.00
4398;BME280;2213;49.720;7.296;2023-05-02T06:18:25;98608.22;;;10.16;100.00
4398;BME280;2213;49.720;7.296;2023-05-02T06:20:55;98614.41;;;10.23;100.00
4398;BME280;2213;49.720;7.296;2023-05-02T06:23:26;98616.81;;;10.33;100.00
4398;BME280;2213;49.720;7.296;2023-05-02T06:25:59;98619.38;;;10.41;100.00
4398;BME280;2213;49.720;7.296;2023-05-02T06:28:29;98614.91;;;10.49;100.00
4398;BME280;2213;49.720;7.296;2023-05-02T06:31:00;98627.94;;;10.57;100.00
4398;BME280;2213;49.720;7.296;2023-05-02T06:33:32;98626.91;;;10.67;100.00
4398;BME280;2213;49.720;7.296;2023-05-02T06:36:03;98632.09;;;10.75;100.00
4398;BME280;2213;49.720;7.296;2023-05-02T06:38:34;98628.78;;;10.81;100.00
4398;BME280;2213;49.720;7.296;2023-05-02T06:41:03;98627.09;;;10.88;100.00
4398;BME280;2213;49.720;7.296;2023-05-02T06:43:34;98638.47;;;10.95;100.00
4398;BME280;2213;49.720;7.296;2023-05-02T06:46:04;98635.16;;;11.01;100.00
4398;BME280;2213;49.720;7.296;2023-05-02T06:48:36;98640.50;;;11.07;100.00
4398;BME280;2213;49.720;7.296;2023-05-02T06:51:06;98643.25;;;11.14;100.00
4398;BME280;2213;49.720;7.296;2023-05-02T06:53:36;98646.78;;;11.21;100.00
4398;BME280;2213;49.720;7.296;2023-05-02T06:56:07;98658.16;;;11.28;100.00
4398;BME280;2213;49.720;7.296;2023-05-02T06:58:37;98650.44;;;11.35;100.00
4398;BME280;2213;49.720;7.296;2023-05-02T07:01:06;98655.13;;;11.39;100.00
4398;BME280;2213;49.720;7.296;2023-05-02T07:03:38;98659.22;;;11.42;100.00
4398;BME280;2213;49.720;7.296;2023-05-02T07:06:08;98657.03;;;11.45;100.00
4398;BME280;2213;49.720;7.296;2023-05-02T07:08:38;98664.22;;;11.51;100.00
4398;BME280;2213;49.720;7.296;2023-05-02T07:11:07;98661.84;;;11.56;100.00
4398;BME280;2213;49.720;7.296;2023-05-02T07:13:36;98666.56;;;11.61;100.00
4398;BME280;2213;49.720;7.296;2023-05-02T07:16:07;98665.03;;;11.67;100.00
4398;BME280;2213;49.720;7.296;2023-05-02T07:18:39;98670.59;;;11.72;100.00
4398;BME280;2213;49.720;7.296;2023-05-02T07:21:10;98659.75;;;11.75;100.00
4398;BME280;2213;49.720;7.296;2023-05-02T07:23:38;98664.63;;;11.78;100.00
4398;BME280;2213;49.720;7.296;2023-05-02T07:26:09;98660.97;;;11.87;100.00
4398;BME280;2213;49.720;7.296;2023-05-02T07:28:39;98671.69;;;11.92;100.00
4398;BME280;2213;49.720;7.296;2023-05-02T07:31:09;98674.59;;;11.97;100.00
4398;BME280;2213;49.720;7.296;2023-05-02T07:33:40;98682.72;;;12.02;100.00
4398;BME280;2213;49.720;7.296;2023-05-02T07:36:10;98675.78;;;12.09;100.00
4398;BME280;2213;49.720;7.296;2023-05-02T07:38:41;98684.53;;;12.16;100.00
4398;BME280;2213;49.720;7.296;2023-05-02T07:41:13;98677.31;;;12.18;100.00
4398;BME280;2213;49.720;7.296;2023-05-02T07:43:42;98674.94;;;12.23;100.00
4398;BME280;2213;49.720;7.296;2023-05-02T07:46:12;98678.03;;;12.27;100.00
4398;BME280;2213;49.720;7.296;2023-05-02T07:48:43;98680.13;;;12.31;100.00
4398;BME280;2213;49.720;7.296;2023-05-02T07:51:12;98687.63;;;12.34;100.00
4398;BME280;2213;49.720;7.296;2023-05-02T07:53:43;98674.13;;;12.37;100.00
4398;BME280;2213;49.720;7.296;2023-05-02T07:56:13;98680.28;;;12.44;100.00
4398;BME280;2213;49.720;7.296;2023-05-02T07:58:43;98682.72;;;12.46;100.00
4398;BME280;2213;49.720;7.296;2023-05-02T08:01:15;98689.22;;;12.50;100.00
4398;BME280;2213;49.720;7.296;2023-05-02T08:03:46;98691.47;;;12.53;100.00
4398;BME280;2213;49.720;7.296;2023-05-02T08:06:16;98697.81;;;12.58;100.00
4398;BME280;2213;49.720;7.296;2023-05-02T08:08:46;98689.56;;;12.61;100.00
4398;BME280;2213;49.720;7.296;2023-05-02T08:11:15;98695.63;;;12.62;100.00
4398;BME280;2213;49.720;7.296;2023-05-02T08:13:46;98699.88;;;12.63;100.00
4398;BME280;2213;49.720;7.296;2023-05-02T08:16:16;98702.59;;;12.70;100.00
4398;BME280;2213;49.720;7.296;2023-05-02T08:18:47;98709.88;;;12.74;100.00
4398;BME280;2213;49.720;7.296;2023-05-02T08:21:16;98710.97;;;12.80;100.00
4398;BME280;2213;49.720;7.296;2023-05-02T08:23:47;98723.72;;;12.83;100.00
4398;BME280;2213;49.720;7.296;2023-05-02T08:26:17;98719.91;;;12.85;100.00
4398;BME280;2213;49.720;7.296;2023-05-02T08:28:49;98718.28;;;12.84;100.00
4398;BME280;2213;49.720;7.296;2023-05-02T08:31:19;98727.63;;;12.87;100.00
4398;BME280;2213;49.720;7.296;2023-05-02T08:33:50;98727.63;;;12.87;100.00
4398;BME280;2213;49.720;7.296;2023-05-02T08:36:20;98730.84;;;12.89;100.00
4398;BME280;2213;49.720;7.296;2023-05-02T08:38:51;98737.53;;;12.91;100.00
4398;BME280;2213;49.720;7.296;2023-05-02T08:41:23;98738.34;;;12.92;100.00
4398;BME280;2213;49.720;7.296;2023-05-02T08:43:53;98742.91;;;12.98;100.00
4398;BME280;2213;49.720;7.296;2023-05-02T08:46:23;98733.63;;;13.02;100.00
4398;BME280;2213;49.720;7.296;2023-05-02T08:48:58;98732.84;;;13.01;100.00
4398;BME280;2213;49.720;7.296;2023-05-02T08:51:29;98737.50;;;13.06;100.00
4398;BME280;2213;49.720;7.296;2023-05-02T08:54:01;98737.00;;;13.10;100.00
4398;BME280;2213;49.720;7.296;2023-05-02T08:56:33;98735.44;;;13.16;100.00
4398;BME280;2213;49.720;7.296;2023-05-02T08:59:03;98729.78;;;13.19;100.00
4398;BME280;2213;49.720;7.296;2023-05-02T09:01:34;98741.56;;;13.23;100.00
4398;BME280;2213;49.720;7.296;2023-05-02T09:04:05;98738.38;;;13.28;100.00
4398;BME280;2213;49.720;7.296;2023-05-02T09:06:36;98736.44;;;13.36;100.00
4398;BME280;2213;49.720;7.296;2023-05-02T09:09:05;98745.56;;;13.40;100.00
4398;BME280;2213;49.720;7.296;2023-05-02T09:11:34;98745.84;;;13.45;100.00
4398;BME280;2213;49.720;7.296;2023-05-02T09:14:15;98749.91;;;13.48;100.00
4398;BME280;2213;49.720;7.296;2023-05-02T09:16:46;98750.97;;;13.53;100.00
4398;BME280;2213;49.720;7.296;2023-05-02T09:19:26;98754.47;;;13.60;100.00
4398;BME280;2213;49.720;7.296;2023-05-02T09:21:59;98754.47;;;13.60;100.00
4398;BME280;2213;49.720;7.296;2023-05-02T09:24:30;98757.34;;;13.66;100.00
4398;BME280;2213;49.720;7.296;2023-05-02T09:27:01;98756.13;;;13.68;100.00
4398;BME280;2213;49.720;7.296;2023-05-02T09:29:33;98754.19;;;13.77;100.00
4398;BME280;2213;49.720;7.296;2023-05-02T09:32:05;98753.66;;;13.81;100.00
4398;BME280;2213;49.720;7.296;2023-05-02T09:34:36;98761.16;;;13.84;100.00
4398;BME280;2213;49.720;7.296;2023-05-02T09:37:07;98761.97;;;13.85;100.00
4398;BME280;2213;49.720;7.296;2023-05-02T09:39:40;98763.56;;;13.86;100.00
4398;BME280;2213;49.720;7.296;2023-05-02T09:42:09;98770.91;;;13.90;100.00
4398;BME280;2213;49.720;7.296;2023-05-02T09:44:40;98768.31;;;13.97;100.00
4398;BME280;2213;49.720;7.296;2023-05-02T09:47:24;98768.75;;;14.00;100.00
4398;BME280;2213;49.720;7.296;2023-05-02T09:49:56;98774.06;;;14.07;100.00
4398;BME280;2213;49.720;7.296;2023-05-02T09:52:26;98773.28;;;14.13;100.00
4398;BME280;2213;49.720;7.296;2023-05-02T09:54:56;98765.66;;;14.18;100.00
4398;BME280;2213;49.720;7.296;2023-05-02T09:57:39;98777.41;;;14.22;100.00
4398;BME280;2213;49.720;7.296;2023-05-02T10:00:13;98772.38;;;14.27;100.00
4398;BME280;2213;49.720;7.296;2023-05-02T10:02:48;98774.81;;;14.29;100.00
4398;BME280;2213;49.720;7.296;2023-05-02T10:05:20;98765.53;;;14.33;100.00
4398;BME280;2213;49.720;7.296;2023-05-02T10:07:55;98775.31;;;14.39;100.00
4398;BME280;2213;49.720;7.296;2023-05-02T10:10:25;98768.25;;;14.39;100.00
4398;BME280;2213;49.720;7.296;2023-05-02T10:12:55;98767.84;;;14.42;100.00
4398;BME280;2213;49.720;7.296;2023-05-02T10:15:28;98772.97;;;14.50;100.00
4398;BME280;2213;49.720;7.296;2023-05-02T10:18:00;98767.91;;;14.55;100.00
4398;BME280;2213;49.720;7.296;2023-05-02T10:20:36;98772.22;;;14.63;100.00
4398;BME280;2213;49.720;7.296;2023-05-02T10:23:14;98771.00;;;14.66;100.00
4398;BME280;2213;49.720;7.296;2023-05-02T10:25:45;98770.84;;;14.74;100.00
4398;BME280;2213;49.720;7.296;2023-05-02T10:28:16;98778.97;;;14.79;100.00
4398;BME280;2213;49.720;7.296;2023-05-02T10:30:46;98770.84;;;14.74;100.00
4398;BME280;2213;49.720;7.296;2023-05-02T10:33:17;98772.25;;;14.70;100.00
4398;BME280;2213;49.720;7.296;2023-05-02T10:35:48;98772.09;;;14.78;100.00
4398;BME280;2213;49.720;7.296;2023-05-02T10:38:20;98768.28;;;14.87;100.00
4398;BME280;2213;49.720;7.296;2023-05-02T10:40:57;98770.53;;;14.96;100.00
4398;BME280;2213;49.720;7.296;2023-05-02T10:43:34;98770.56;;;15.03;100.00
4398;BME280;2213;49.720;7.296;2023-05-02T10:46:29;98765.53;;;15.08;100.00
4398;BME280;2213;49.720;7.296;2023-05-02T10:49:05;98758.03;;;15.05;100.00
4398;BME280;2213;49.720;7.296;2023-05-02T10:51:38;98752.75;;;15.05;99.36
4398;BME280;2213;49.720;7.296;2023-05-02T10:54:19;98764.94;;;15.13;100.00
4398;BME280;2213;49.720;7.296;2023-05-02T10:57:25;98760.50;;;15.13;100.00
4398;BME280;2213;49.720;7.296;2023-05-02T10:59:54;98767.75;;;15.11;100.00
4398;BME280;2213;49.720;7.296;2023-05-02T11:02:47;98760.66;;;15.05;100.00
4398;BME280;2213;49.720;7.296;2023-05-02T11:05:18;98770.78;;;15.08;100.00
4398;BME280;2213;49.720;7.296;2023-05-02T11:07:49;98770.56;;;15.03;100.00
4398;BME280;2213;49.720;7.296;2023-05-02T11:10:26;98769.13;;;14.94;100.00
4398;BME280;2213;49.720;7.296;2023-05-02T11:12:57;98770.75;;;14.95;100.00
4398;BME280;2213;49.720;7.296;2023-05-02T11:15:53;98776.19;;;14.93;100.00
4398;BME280;2213;49.720;7.296;2023-05-02T11:18:25;98768.69;;;14.90;100.00
4398;BME280;2213;49.720;7.296;2023-05-02T11:21:26;98763.84;;;14.94;100.00
4398;BME280;2213;49.720;7.296;2023-05-02T11:24:46;98756.38;;;15.04;100.00
4398;BME280;2213;49.720;7.296;2023-05-02T11:27:38;98759.03;;;15.10;100.00
4398;BME280;2213;49.720;7.296;2023-05-02T11:30:11;98746.91;;;15.09;100.00
4398;BME280;2213;49.720;7.296;2023-05-02T11:33:12;98747.13;;;15.21;100.00
4398;BME280;2213;49.720;7.296;2023-05-02T11:35:48;98733.34;;;15.26;100.00
4398;BME280;2213;49.720;7.296;2023-05-02T11:38:20;98733.13;;;15.27;100.00
4398;BME280;2213;49.720;7.296;2023-05-02T11:40:54;98720.16;;;15.26;100.00
4398;BME280;2213;49.720;7.296;2023-05-02T11:43:24;98729.50;;;15.28;100.00
4398;BME280;2213;49.720;7.296;2023-05-02T11:45:58;98724.22;;;15.28;99.69
4398;BME280;2213;49.720;7.296;2023-05-02T11:48:30;98727.09;;;15.33;100.00
4398;BME280;2213;49.720;7.296;2023-05-02T11:51:00;98721.41;;;15.36;100.00
4398;BME280;2213;49.720;7.296;2023-05-02T11:53:40;98731.13;;;15.42;100.00
4398;BME280;2213;49.720;7.296;2023-05-02T11:56:11;98731.53;;;15.39;95.96
4398;BME280;2213;49.720;7.296;2023-05-02T11:58:42;98726.88;;;15.35;89.88
4398;BME280;2213;49.720;7.296;2023-05-02T12:01:15;98726.88;;;15.41;90.07
4398;BME280;2213;49.720;7.296;2023-05-02T12:03:44;98728.53;;;15.49;92.00
4398;BME280;2213;49.720;7.296;2023-05-02T12:06:16;98736.44;;;15.55;90.28
4398;BME280;2213;49.720;7.296;2023-05-02T12:08:48;98728.75;;;15.60;90.67
4398;BME280;2213;49.720;7.296;2023-05-02T12:11:24;98736.50;;;15.69;91.66
4398;BME280;2213;49.720;7.296;2023-05-02T12:13:54;98735.25;;;15.71;92.83
4398;BME280;2213;49.720;7.296;2023-05-02T12:16:25;98732.03;;;15.76;92.73
4398;BME280;2213;49.720;7.296;2023-05-02T12:18:55;98731.63;;;15.79;93.23
4398;BME280;2213;49.720;7.296;2023-05-02T12:21:27;98732.22;;;15.81;94.81
4398;BME280;2213;49.720;7.296;2023-05-02T12:23:57;98738.50;;;15.80;93.64
4398;BME280;2213;49.720;7.296;2023-05-02T12:26:29;98733.03;;;15.81;92.69
4398;BME280;2213;49.720;7.296;2023-05-02T12:29:00;98736.47;;;15.82;91.84
4398;BME280;2213;49.720;7.296;2023-05-02T12:31:30;98743.34;;;15.83;90.24
4398;BME280;2213;49.720;7.296;2023-05-02T12:33:59;98744.00;;;15.78;91.47
4398;BME280;2213;49.720;7.296;2023-05-02T12:36:28;98743.75;;;15.80;92.11
4398;BME280;2213;49.720;7.296;2023-05-02T12:38:58;98742.56;;;15.89;94.52
4398;BME280;2213;49.720;7.296;2023-05-02T12:41:34;98749.66;;;15.95;93.50
4398;BME280;2213;49.720;7.296;2023-05-02T12:44:05;98753.94;;;15.96;92.04
4398;BME280;2213;49.720;7.296;2023-05-02T12:46:34;98752.28;;;15.95;92.36
4398;BME280;2213;49.720;7.296;2023-05-02T12:49:06;98764.06;;;15.92;91.69
4398;BME280;2213;49.720;7.296;2023-05-02T12:51:38;98761.44;;;15.92;91.18
4398;BME280;2213;49.720;7.296;2023-05-02T12:54:18;98774.63;;;15.86;87.63
4398;BME280;2213;49.720;7.296;2023-05-02T12:56:49;98761.81;;;15.83;86.95
4398;BME280;2213;49.720;7.296;2023-05-02T12:59:27;98763.66;;;15.82;86.86
4398;BME280;2213;49.720;7.296;2023-05-02T13:01:58;98764.06;;;15.79;84.22
4398;BME280;2213;49.720;7.296;2023-05-02T13:04:36;98752.50;;;15.87;84.23
4398;BME280;2213;49.720;7.296;2023-05-02T13:07:07;98748.25;;;15.99;84.64
4398;BME280;2213;49.720;7.296;2023-05-02T13:09:38;98748.63;;;16.09;83.54
4398;BME280;2213;49.720;7.296;2023-05-02T13:12:09;98746.97;;;16.21;81.87
4398;BME280;2213;49.720;7.296;2023-05-02T13:14:40;98738.25;;;16.27;80.51
4398;BME280;2213;49.720;7.296;2023-05-02T13:17:10;98740.25;;;16.32;82.62
4398;BME280;2213;49.720;7.296;2023-05-02T13:19:39;98753.47;;;16.32;82.22
4398;BME280;2213;49.720;7.296;2023-05-02T13:22:28;98755.09;;;16.26;81.44
4398;BME280;2213;49.720;7.296;2023-05-02T13:24:58;98737.47;;;16.20;77.45
4398;BME280;2213;49.720;7.296;2023-05-02T13:27:28;98743.34;;;16.16;76.31
4398;BME280;2213;49.720;7.296;2023-05-02T13:29:58;98742.53;;;16.15;76.11
4398;BME280;2213;49.720;7.296;2023-05-02T13:32:33;98739.28;;;16.13;74.85
4398;BME280;2213;49.720;7.296;2023-05-02T13:35:03;98739.47;;;16.18;76.31
4398;BME280;2213;49.720;7.296;2023-05-02T13:37:33;98738.47;;;16.19;78.16
4398;BME280;2213;49.720;7.296;2023-05-02T13:40:03;98741.50;;;16.29;77.68
4398;BME280;2213;49.720;7.296;2023-05-02T13:42:34;98738.00;;;16.42;75.89
4398;BME280;2213;49.720;7.296;2023-05-02T13:45:07;98727.63;;;16.53;72.30
4398;BME280;2213;49.720;7.296;2023-05-02T13:47:36;98736.97;;;16.69;70.04